Time;durP1;ratioP1;P1;durP2;ratioP2;P2;SDS_P1;SDS_P2;PMS_P1;PMS_P2;Temp;Humidity;BMP_temperature;BMP_pressure;BME280_temperature;BME280_humidity;BME280_pressure;Samples;Min_cycle;Max_cycle;Signal;HPM_P1;HPM_P2
2023/04/26 00:01:22;;;;;;;8.93;4.30;;;5.10;99.90;;;;;;5042634;28;20468;-43
2023/04/26 00:03:48;;;;;;;6.40;3.80;;;5.10;99.90;;;;;;5042458;28;20143;-42
2023/04/26 00:06:15;;;;;;;8.25;3.80;;;5.00;99.90;;;;;;5042397;28;20029;-43
2023/04/26 00:08:41;;;;;;;11.30;4.80;;;5.00;99.90;;;;;;5041228;28;20048;-42
2023/04/26 00:11:09;;;;;;;7.47;4.05;;;4.90;99.90;;;;;;5040553;28;20820;-42
2023/04/26 00:13:37;;;;;;;8.43;4.57;;;4.90;99.90;;;;;;5042597;28;20028;-42
2023/04/26 00:16:03;;;;;;;8.05;4.20;;;4.90;99.90;;;;;;5041910;28;20025;-42
2023/04/26 00:18:30;;;;;;;7.55;4.32;;;5.00;99.90;;;;;;5041255;28;20060;-41
2023/04/26 00:20:56;;;;;;;6.05;4.38;;;4.90;99.90;;;;;;5042321;28;20021;-43
2023/04/26 00:23:21;;;;;;;13.77;4.18;;;4.90;99.90;;;;;;5042039;28;20036;-42
2023/04/26 00:25:47;;;;;;;8.10;4.30;;;4.90;99.90;;;;;;5040695;28;20451;-42
2023/04/26 00:28:12;;;;;;;5.35;3.78;;;4.90;99.90;;;;;;5041941;28;20489;-42
2023/04/26 00:30:46;;;;;;;10.73;4.05;;;4.90;99.90;;;;;;5039418;28;20039;-42
2023/04/26 00:33:12;;;;;;;6.65;3.80;;;4.90;99.90;;;;;;5039991;28;20037;-42
2023/04/26 00:35:41;;;;;;;10.27;4.15;;;4.90;99.90;;;;;;5042381;28;20017;-42
2023/04/26 00:38:06;;;;;;;6.50;3.90;;;4.90;99.90;;;;;;5039641;28;20051;-45
2023/04/26 00:40:34;;;;;;;8.80;4.18;;;4.90;99.90;;;;;;5041528;28;20028;-43
2023/04/26 00:43:00;;;;;;;7.03;4.00;;;4.90;99.90;;;;;;5041617;28;20017;-43
2023/04/26 00:45:26;;;;;;;6.13;3.85;;;4.90;99.90;;;;;;5041248;28;20656;-44
2023/04/26 00:47:52;;;;;;;6.93;4.20;;;4.90;99.90;;;;;;5041733;28;20961;-43
2023/04/26 00:50:19;;;;;;;8.18;4.60;;;4.90;99.90;;;;;;5041848;28;20044;-42
2023/04/26 00:52:46;;;;;;;8.93;4.55;;;4.80;99.90;;;;;;5041206;28;20037;-42
2023/04/26 00:55:12;;;;;;;8.95;4.13;;;4.80;99.90;;;;;;5041543;28;20387;-43
2023/04/26 00:57:38;;;;;;;6.40;3.97;;;4.80;99.90;;;;;;5040735;28;20097;-42
2023/04/26 01:00:07;;;;;;;9.15;4.15;;;4.80;99.90;;;;;;5037691;28;20032;-42
2023/04/26 01:02:33;;;;;;;9.70;4.90;;;4.70;99.90;;;;;;5041409;28;20504;-44
2023/04/26 01:04:59;;;;;;;7.80;3.70;;;4.70;99.90;;;;;;5040776;28;20119;-42
2023/04/26 01:07:24;;;;;;;9.85;4.40;;;4.80;99.90;;;;;;5040259;28;20467;-43
2023/04/26 01:09:52;;;;;;;10.63;4.70;;;4.70;99.90;;;;;;5041777;28;20024;-43
2023/04/26 01:12:18;;;;;;;6.97;4.03;;;4.70;99.90;;;;;;5041070;28;20086;-42
2023/04/26 01:14:45;;;;;;;7.85;4.63;;;4.70;99.90;;;;;;5038803;28;20036;-42
2023/04/26 01:17:10;;;;;;;9.55;4.22;;;4.70;99.90;;;;;;5041018;28;20041;-43
2023/04/26 01:19:46;;;;;;;10.50;5.05;;;4.60;99.90;;;;;;5033058;28;20033;-43
2023/04/26 01:22:12;;;;;;;6.75;4.40;;;4.70;99.90;;;;;;5031600;28;20514;-42
2023/04/26 01:24:39;;;;;;;8.68;4.70;;;4.70;99.90;;;;;;5040806;28;20032;-42
2023/04/26 01:27:05;;;;;;;9.00;4.75;;;4.70;99.90;;;;;;5021190;28;20148;-42
2023/04/26 01:29:31;;;;;;;8.43;4.63;;;4.60;99.90;;;;;;5034024;28;20033;-43
2023/04/26 01:31:57;;;;;;;9.73;4.60;;;4.60;99.90;;;;;;5040785;28;20143;-43
2023/04/26 01:34:22;;;;;;;7.80;5.05;;;4.50;99.90;;;;;;5040679;28;20472;-42
2023/04/26 01:36:48;;;;;;;9.27;5.20;;;4.50;99.90;;;;;;5029633;28;20488;-43
2023/04/26 01:39:13;;;;;;;8.85;5.40;;;4.40;99.90;;;;;;5030274;28;20392;-43
2023/04/26 01:41:39;;;;;;;6.80;4.53;;;4.40;99.90;;;;;;5039633;28;20029;-43
2023/04/26 01:44:04;;;;;;;8.27;4.70;;;4.40;99.90;;;;;;5040162;28;20510;-43
2023/04/26 01:46:30;;;;;;;5.93;4.70;;;4.40;99.90;;;;;;5040412;28;20052;-42
2023/04/26 01:48:56;;;;;;;8.32;4.88;;;4.30;99.90;;;;;;5038569;28;20885;-42
2023/04/26 01:51:21;;;;;;;7.55;5.13;;;4.30;99.90;;;;;;5037641;28;20489;-43
2023/04/26 01:53:47;;;;;;;5.68;4.55;;;4.30;99.90;;;;;;5040646;28;20033;-43
2023/04/26 01:56:12;;;;;;;8.93;5.85;;;4.30;99.90;;;;;;5039927;28;20043;-43
2023/04/26 01:58:38;;;;;;;9.43;4.78;;;4.20;99.90;;;;;;5038997;28;20029;-42
2023/04/26 02:01:05;;;;;;;7.07;5.30;;;4.20;99.90;;;;;;5040131;28;20036;-43
2023/04/26 02:03:31;;;;;;;8.20;5.57;;;4.20;99.90;;;;;;5039987;28;20021;-42
2023/04/26 02:05:57;;;;;;;9.57;5.45;;;4.20;99.90;;;;;;5039447;28;20061;-43
2023/04/26 02:08:22;;;;;;;7.35;5.00;;;4.20;99.90;;;;;;5040674;28;20033;-42
2023/04/26 02:10:48;;;;;;;9.63;5.32;;;4.20;99.90;;;;;;5039527;28;20025;-42
2023/04/26 02:13:14;;;;;;;9.45;5.90;;;4.10;99.90;;;;;;5041321;28;20033;-42
2023/04/26 02:15:39;;;;;;;10.18;5.53;;;4.20;99.90;;;;;;5032644;28;20035;-43
2023/04/26 02:18:06;;;;;;;9.52;6.07;;;4.10;99.90;;;;;;5030585;28;20025;-43
2023/04/26 02:20:31;;;;;;;8.60;5.88;;;4.10;99.90;;;;;;5028796;28;20116;-43
2023/04/26 02:22:57;;;;;;;8.57;5.50;;;4.10;99.90;;;;;;5040776;28;20086;-42
2023/04/26 02:25:23;;;;;;;9.43;6.30;;;4.10;99.90;;;;;;5040387;28;20761;-42
2023/04/26 02:27:49;;;;;;;9.90;5.25;;;4.10;99.90;;;;;;5030105;28;20158;-41
2023/04/26 02:30:15;;;;;;;10.13;5.97;;;4.10;99.90;;;;;;5041103;28;20572;-41
2023/04/26 02:32:40;;;;;;;8.80;5.72;;;4.00;99.90;;;;;;5033150;28;20032;-42
2023/04/26 02:35:06;;;;;;;10.75;6.53;;;4.00;99.90;;;;;;5040093;28;20029;-43
2023/04/26 02:37:33;;;;;;;10.32;6.53;;;4.00;99.90;;;;;;5040640;28;20025;-43
2023/04/26 02:39:58;;;;;;;7.25;5.60;;;4.00;99.90;;;;;;5040023;28;20033;-42
2023/04/26 02:42:24;;;;;;;10.98;5.95;;;3.90;99.90;;;;;;5039926;28;20028;-42
2023/04/26 02:44:50;;;;;;;8.73;5.28;;;3.90;99.90;;;;;;5022334;28;20507;-43
2023/04/26 02:47:15;;;;;;;13.35;5.95;;;3.90;99.90;;;;;;5037803;28;20771;-43
2023/04/26 02:49:41;;;;;;;8.15;5.18;;;3.90;99.90;;;;;;5040018;28;20037;-43
2023/04/26 02:52:06;;;;;;;12.38;5.80;;;3.90;99.90;;;;;;5034240;28;20052;-42
2023/04/26 02:54:32;;;;;;;10.25;5.28;;;3.90;99.90;;;;;;5036924;28;20052;-43
2023/04/26 02:56:58;;;;;;;11.45;6.45;;;3.80;99.90;;;;;;5042060;28;20013;-42
2023/04/26 02:59:23;;;;;;;9.23;5.47;;;3.80;99.90;;;;;;5042961;28;20045;-43
2023/04/26 03:01:49;;;;;;;10.98;5.25;;;3.80;99.90;;;;;;5043147;28;20021;-42
2023/04/26 03:04:16;;;;;;;6.90;5.38;;;3.80;99.90;;;;;;5043561;28;20040;-43
2023/04/26 03:06:41;;;;;;;8.20;5.30;;;3.70;99.90;;;;;;5042858;28;20040;-43
2023/04/26 03:09:07;;;;;;;9.02;5.53;;;3.70;99.90;;;;;;5043058;28;20041;-43
2023/04/26 03:11:33;;;;;;;8.95;5.50;;;3.70;99.90;;;;;;5043022;28;20048;-43
2023/04/26 03:13:58;;;;;;;11.00;6.00;;;3.70;99.90;;;;;;5042970;28;20053;-43
2023/04/26 03:16:27;;;;;;;8.63;5.90;;;3.70;99.90;;;;;;5043104;28;20033;-44
2023/04/26 03:18:53;;;;;;;10.50;6.22;;;3.70;99.90;;;;;;5041969;28;20017;-43
2023/04/26 03:21:21;;;;;;;8.50;6.00;;;3.70;99.90;;;;;;5042616;28;20043;-43
2023/04/26 03:23:46;;;;;;;10.52;6.50;;;3.60;99.90;;;;;;5042481;28;20075;-42
2023/04/26 03:26:12;;;;;;;11.43;6.65;;;3.60;99.90;;;;;;5043066;28;20982;-42
2023/04/26 03:28:37;;;;;;;9.30;6.55;;;3.60;99.90;;;;;;5042420;28;20552;-43
2023/04/26 03:31:03;;;;;;;10.10;6.43;;;3.60;99.90;;;;;;5034732;28;20819;-43
2023/04/26 03:33:31;;;;;;;9.35;6.30;;;3.60;99.90;;;;;;5035784;28;20638;-42
2023/04/26 03:35:57;;;;;;;7.63;6.15;;;3.60;99.90;;;;;;5042309;28;20064;-42
2023/04/26 03:38:23;;;;;;;10.10;6.70;;;3.60;99.90;;;;;;5041915;28;20055;-42
2023/04/26 03:40:49;;;;;;;14.65;6.30;;;3.60;99.90;;;;;;5043400;28;20029;-42
2023/04/26 03:43:15;;;;;;;7.53;6.32;;;3.50;99.90;;;;;;5031562;28;20028;-42
2023/04/26 03:45:40;;;;;;;9.65;6.18;;;3.50;99.90;;;;;;5043545;28;20483;-43
2023/04/26 03:48:06;;;;;;;11.13;6.57;;;3.50;99.90;;;;;;5041888;28;20072;-43
2023/04/26 03:50:31;;;;;;;9.85;6.13;;;3.50;99.90;;;;;;5042459;28;20469;-43
2023/04/26 03:52:57;;;;;;;9.02;6.45;;;3.50;99.90;;;;;;5042888;28;20113;-43
2023/04/26 03:55:22;;;;;;;9.27;6.30;;;3.50;99.90;;;;;;5041514;28;20412;-42
2023/04/26 03:57:48;;;;;;;10.30;6.55;;;3.50;99.90;;;;;;5038461;28;20136;-43
2023/04/26 04:00:14;;;;;;;11.30;6.88;;;3.40;99.90;;;;;;5042196;28;20021;-43
2023/04/26 04:02:40;;;;;;;10.80;6.75;;;3.40;99.90;;;;;;5042031;28;20025;-46
2023/04/26 04:05:07;;;;;;;10.55;7.40;;;3.40;99.90;;;;;;5040849;28;20028;-44
2023/04/26 04:07:33;;;;;;;12.63;7.43;;;3.40;99.90;;;;;;5040824;28;20391;-43
2023/04/26 04:09:59;;;;;;;9.57;6.47;;;3.40;99.90;;;;;;5041955;28;20071;-43
2023/04/26 04:12:24;;;;;;;12.63;6.97;;;3.40;99.90;;;;;;5042575;28;20523;-42
2023/04/26 04:14:51;;;;;;;12.30;6.88;;;3.40;99.90;;;;;;5042438;28;20028;-42
2023/04/26 04:17:17;;;;;;;11.20;7.22;;;3.40;99.90;;;;;;5037463;28;20056;-43
2023/04/26 04:19:43;;;;;;;11.75;6.90;;;3.40;99.90;;;;;;5032505;28;20540;-43
2023/04/26 04:22:09;;;;;;;10.95;6.75;;;3.40;99.90;;;;;;5042292;28;20025;-42
2023/04/26 04:24:34;;;;;;;8.98;6.30;;;3.40;99.90;;;;;;5041495;28;20025;-42
2023/04/26 04:27:00;;;;;;;12.57;7.07;;;3.40;99.90;;;;;;5042102;28;20040;-42
2023/04/26 04:29:26;;;;;;;10.73;7.20;;;3.40;99.90;;;;;;5039839;28;20021;-42
2023/04/26 04:31:52;;;;;;;11.13;7.25;;;3.40;99.90;;;;;;5040997;28;20048;-43
2023/04/26 04:34:17;;;;;;;10.05;6.75;;;3.40;99.90;;;;;;5042349;28;20076;-43
2023/04/26 04:36:43;;;;;;;10.18;7.07;;;3.40;99.90;;;;;;5041944;28;20025;-43
2023/04/26 04:39:12;;;;;;;9.40;6.53;;;3.40;99.90;;;;;;5041253;28;20763;-42
2023/04/26 04:41:39;;;;;;;10.38;6.90;;;3.40;99.90;;;;;;5041563;28;20037;-43
2023/04/26 04:44:05;;;;;;;9.82;7.10;;;3.30;99.90;;;;;;5026378;28;20035;-44
2023/04/26 04:46:30;;;;;;;11.38;7.28;;;3.40;99.90;;;;;;5038059;28;20053;-44
2023/04/26 04:48:56;;;;;;;11.73;7.65;;;3.40;99.90;;;;;;5040794;28;20056;-43
2023/04/26 04:51:21;;;;;;;10.80;7.47;;;3.40;99.90;;;;;;5040265;28;20037;-43
2023/04/26 04:53:47;;;;;;;12.15;8.02;;;3.40;99.90;;;;;;5040592;28;20028;-43
2023/04/26 04:56:13;;;;;;;12.00;6.65;;;3.40;99.90;;;;;;5041608;28;20021;-43
2023/04/26 04:58:38;;;;;;;11.00;7.22;;;3.40;99.90;;;;;;5041400;28;20373;-43
2023/04/26 05:01:04;;;;;;;10.30;7.05;;;3.40;99.90;;;;;;5040309;28;20036;-42
2023/04/26 05:03:32;;;;;;;10.00;7.25;;;3.40;99.90;;;;;;5040780;28;20047;-43
2023/04/26 05:05:59;;;;;;;11.70;7.28;;;3.40;99.90;;;;;;5040498;28;20017;-43
2023/04/26 05:08:24;;;;;;;10.48;7.32;;;3.40;99.90;;;;;;5040594;28;20037;-42
2023/04/26 05:10:50;;;;;;;12.05;7.38;;;3.40;99.90;;;;;;5041571;28;20024;-42
2023/04/26 05:13:16;;;;;;;11.43;7.68;;;3.50;99.90;;;;;;5040867;28;20040;-42
2023/04/26 05:15:41;;;;;;;10.52;7.32;;;3.50;99.90;;;;;;5041296;28;20040;-42
2023/04/26 05:18:07;;;;;;;12.38;8.52;;;3.50;99.90;;;;;;5040362;28;20036;-43
2023/04/26 05:20:33;;;;;;;12.48;8.00;;;3.50;99.90;;;;;;5040523;28;20025;-42
2023/04/26 05:22:58;;;;;;;11.15;8.10;;;3.50;99.90;;;;;;5040223;28;20361;-43
2023/04/26 05:25:24;;;;;;;13.95;8.02;;;3.60;99.90;;;;;;5021520;28;20855;-41
2023/04/26 05:27:50;;;;;;;14.00;9.00;;;3.60;99.90;;;;;;5037238;28;20443;-43
2023/04/26 05:30:15;;;;;;;14.15;8.45;;;3.70;99.90;;;;;;5040078;28;20036;-43
2023/04/26 05:32:41;;;;;;;15.88;8.50;;;3.80;99.90;;;;;;5039892;28;20037;-43
2023/04/26 05:35:07;;;;;;;16.48;8.35;;;3.90;99.90;;;;;;5039556;28;20481;-43
2023/04/26 05:37:39;;;;;;;16.98;9.27;;;3.90;99.90;;;;;;5040565;28;20028;-43
2023/04/26 05:40:06;;;;;;;15.23;9.38;;;3.90;99.90;;;;;;5040751;28;20059;-43
2023/04/26 05:42:32;;;;;;;14.18;8.93;;;4.00;99.90;;;;;;5039533;28;20017;-43
2023/04/26 05:44:58;;;;;;;13.00;8.15;;;4.00;99.90;;;;;;5040800;28;20029;-42
2023/04/26 05:47:23;;;;;;;12.90;9.10;;;4.10;99.90;;;;;;5039609;28;20056;-41
2023/04/26 05:49:49;;;;;;;12.38;7.85;;;4.10;99.90;;;;;;5040530;28;20735;-43
2023/04/26 05:52:14;;;;;;;12.95;7.57;;;4.10;99.90;;;;;;5040626;28;20029;-43
2023/04/26 05:54:40;;;;;;;14.30;8.25;;;4.10;99.90;;;;;;5036737;28;20048;-42
2023/04/26 05:57:05;;;;;;;11.32;7.50;;;4.20;99.90;;;;;;5038197;28;20041;-44
2023/04/26 05:59:35;;;;;;;12.00;8.18;;;4.20;99.90;;;;;;5038096;28;20041;-43
2023/04/26 06:02:01;;;;;;;12.77;7.70;;;4.20;99.90;;;;;;5036127;28;20029;-42
2023/04/26 06:04:30;;;;;;;12.88;8.30;;;4.20;99.90;;;;;;5039913;28;20537;-42
2023/04/26 06:06:55;;;;;;;11.88;7.85;;;4.20;99.90;;;;;;5038531;28;20091;-43
2023/04/26 06:09:21;;;;;;;11.65;7.18;;;4.20;99.90;;;;;;5038361;28;20029;-42
2023/04/26 06:11:46;;;;;;;11.52;7.65;;;4.30;99.90;;;;;;5038445;28;20114;-43
2023/04/26 06:14:12;;;;;;;7.85;6.32;;;4.30;99.90;;;;;;5037665;28;20029;-42
2023/04/26 06:16:37;;;;;;;13.32;6.47;;;4.40;99.90;;;;;;5038320;28;20607;-43
2023/04/26 06:19:03;;;;;;;10.85;6.45;;;4.40;99.90;;;;;;5039720;28;20025;-43
2023/04/26 06:21:28;;;;;;;11.65;6.97;;;4.50;99.90;;;;;;5039277;28;20033;-42
2023/04/26 06:23:54;;;;;;;10.10;6.40;;;4.60;99.90;;;;;;5032292;28;20032;-43
2023/04/26 06:26:20;;;;;;;11.20;6.38;;;4.80;99.90;;;;;;5028262;28;20079;-43
2023/04/26 06:28:45;;;;;;;9.68;5.85;;;4.90;99.90;;;;;;5027986;28;20495;-43
2023/04/26 06:31:11;;;;;;;11.57;6.45;;;5.00;99.90;;;;;;5044242;28;20377;-43
2023/04/26 06:33:36;;;;;;;11.18;6.25;;;5.30;99.90;;;;;;5043991;28;20613;-42
2023/04/26 06:36:02;;;;;;;14.88;7.65;;;5.40;99.90;;;;;;5044714;28;20555;-45
2023/04/26 06:38:28;;;;;;;10.70;7.30;;;5.60;99.90;;;;;;5042474;28;20029;-43
2023/04/26 06:40:53;;;;;;;11.73;6.50;;;5.80;99.90;;;;;;5034010;28;20683;-42
2023/04/26 06:43:19;;;;;;;10.70;6.22;;;6.00;99.90;;;;;;5043255;28;20033;-43
2023/04/26 06:45:44;;;;;;;9.23;5.85;;;6.10;99.90;;;;;;5039743;28;20476;-42
2023/04/26 06:48:10;;;;;;;8.98;5.47;;;6.20;99.90;;;;;;5041845;28;20155;-43
2023/04/26 06:50:41;;;;;;;8.75;5.43;;;6.30;99.90;;;;;;5043733;28;20487;-43
2023/04/26 06:53:07;;;;;;;8.55;5.05;;;6.40;99.90;;;;;;5043473;28;20025;-43
2023/04/26 06:55:33;;;;;;;7.32;4.68;;;6.50;99.90;;;;;;5038695;28;20443;-43
2023/04/26 06:57:59;;;;;;;7.57;4.97;;;6.60;99.90;;;;;;5042617;28;20039;-43
2023/04/26 07:00:24;;;;;;;9.60;4.75;;;6.70;99.90;;;;;;5038418;28;20100;-43
2023/04/26 07:02:50;;;;;;;9.20;4.70;;;6.80;99.90;;;;;;5043342;28;20101;-43
2023/04/26 07:05:16;;;;;;;5.50;4.30;;;6.90;99.90;;;;;;5042944;28;20381;-45
2023/04/26 07:07:41;;;;;;;9.73;4.38;;;7.00;99.90;;;;;;5043452;28;20063;-43
2023/04/26 07:10:08;;;;;;;8.63;4.40;;;7.00;99.90;;;;;;5042833;28;20025;-43
2023/04/26 07:12:34;;;;;;;7.97;3.88;;;7.10;99.90;;;;;;5039864;28;20033;-44
2023/04/26 07:15:00;;;;;;;7.88;4.00;;;7.20;99.90;;;;;;5042153;28;20066;-42
2023/04/26 07:17:26;;;;;;;10.43;4.13;;;7.30;99.90;;;;;;5042546;28;20087;-43
2023/04/26 07:19:51;;;;;;;6.68;3.90;;;7.30;99.90;;;;;;5036885;28;20770;-43
2023/04/26 07:22:17;;;;;;;7.38;3.63;;;7.40;99.90;;;;;;5039551;28;20033;-44
2023/04/26 07:24:43;;;;;;;5.13;2.97;;;7.40;99.90;;;;;;5042913;28;20029;-43
2023/04/26 07:27:08;;;;;;;6.40;3.13;;;7.50;99.90;;;;;;5041872;28;20511;-42
2023/04/26 07:29:34;;;;;;;7.03;3.78;;;7.60;99.90;;;;;;5041798;28;20064;-43
2023/04/26 07:32:00;;;;;;;6.13;3.30;;;7.70;99.90;;;;;;5042454;28;20029;-44
2023/04/26 07:34:25;;;;;;;6.43;3.28;;;7.80;99.90;;;;;;5041913;28;20033;-44
2023/04/26 07:36:51;;;;;;;3.97;2.55;;;7.90;99.90;;;;;;5042835;28;20591;-44
2023/04/26 07:39:17;;;;;;;6.35;2.80;;;7.90;99.90;;;;;;5042888;28;20037;-44
2023/04/26 07:41:42;;;;;;;4.63;2.88;;;8.00;99.90;;;;;;5040826;28;20024;-43
2023/04/26 07:44:10;;;;;;;2.75;2.42;;;8.10;99.90;;;;;;5042370;28;20769;-43
2023/04/26 07:46:35;;;;;;;8.10;3.42;;;8.30;99.90;;;;;;5042406;28;20029;-44
2023/04/26 07:49:01;;;;;;;6.32;3.15;;;8.30;99.90;;;;;;5041713;28;20369;-44
2023/04/26 07:51:27;;;;;;;7.93;3.50;;;8.40;99.90;;;;;;5042717;28;20024;-44
2023/04/26 07:53:54;;;;;;;4.47;3.00;;;8.50;99.90;;;;;;5043088;28;20032;-43
2023/04/26 07:56:20;;;;;;;4.72;2.85;;;8.50;99.90;;;;;;5041694;28;20029;-43
2023/04/26 07:58:46;;;;;;;3.55;2.70;;;8.60;99.90;;;;;;5042030;28;20025;-44
2023/04/26 08:01:11;;;;;;;3.92;2.60;;;8.70;99.90;;;;;;5036523;28;20095;-45
2023/04/26 08:03:37;;;;;;;4.38;2.25;;;8.70;99.90;;;;;;5041676;28;20036;-43
2023/04/26 08:06:02;;;;;;;4.88;1.80;;;8.70;99.90;;;;;;5042292;28;20025;-43
2023/04/26 08:08:28;;;;;;;4.43;1.70;;;8.70;99.90;;;;;;5041237;28;20060;-43
2023/04/26 08:10:54;;;;;;;4.85;1.30;;;8.70;99.90;;;;;;5041855;28;20772;-43
2023/04/26 08:13:20;;;;;;;1.73;1.30;;;8.80;99.90;;;;;;5042298;28;20512;-43
2023/04/26 08:15:46;;;;;;;3.60;1.52;;;8.90;99.90;;;;;;5041838;28;20068;-42
2023/04/26 08:18:12;;;;;;;2.65;1.10;;;9.00;99.90;;;;;;5042459;28;20043;-42
2023/04/26 08:20:38;;;;;;;4.28;1.60;;;9.00;99.90;;;;;;5040098;28;20044;-43
2023/04/26 08:23:03;;;;;;;6.75;1.98;;;9.00;99.90;;;;;;5041000;28;20017;-43
2023/04/26 08:25:29;;;;;;;3.78;1.67;;;9.00;99.90;;;;;;5041739;28;20021;-43
2023/04/26 08:27:55;;;;;;;7.85;2.40;;;9.00;99.90;;;;;;5041106;28;20029;-43
2023/04/26 08:30:20;;;;;;;4.32;2.17;;;8.90;99.90;;;;;;5041256;28;20029;-43
2023/04/26 08:32:46;;;;;;;2.63;1.90;;;8.90;99.90;;;;;;5041412;28;20036;-43
2023/04/26 08:35:12;;;;;;;4.03;1.95;;;8.90;99.90;;;;;;5041631;28;20110;-43
2023/04/26 08:37:38;;;;;;;3.88;2.55;;;9.00;99.90;;;;;;5033895;28;20033;-42
2023/04/26 08:40:10;;;;;;;3.10;1.92;;;9.00;99.90;;;;;;5035797;28;20465;-43
2023/04/26 08:42:40;;;;;;;4.95;2.10;;;9.00;99.90;;;;;;5042953;28;20025;-43
2023/04/26 08:45:07;;;;;;;10.32;2.67;;;9.00;99.90;;;;;;5040901;28;20028;-42
2023/04/26 08:47:57;;;;;;;5.88;2.40;;;8.90;99.90;;;;;;5026024;28;20063;-44
2023/04/26 08:50:23;;;;;;;4.70;2.40;;;8.90;99.90;;;;;;5040544;28;20037;-44
2023/04/26 08:52:52;;;;;;;3.55;2.00;;;8.80;99.90;;;;;;5035454;28;20401;-43
2023/04/26 08:55:20;;;;;;;4.60;2.15;;;8.70;99.90;;;;;;5041550;28;20043;-43
2023/04/26 08:57:49;;;;;;;4.90;2.35;;;8.80;99.90;;;;;;5038932;28;20080;-43
2023/04/26 09:00:16;;;;;;;6.13;2.47;;;8.80;99.90;;;;;;5038772;28;20025;-43
2023/04/26 09:02:47;;;;;;;3.97;1.98;;;8.90;99.90;;;;;;5040102;28;20020;-42
2023/04/26 09:05:13;;;;;;;4.20;2.08;;;9.00;99.90;;;;;;5040852;28;20029;-44
2023/04/26 09:07:40;;;;;;;6.10;2.55;;;9.10;99.90;;;;;;5033807;28;20049;-44
2023/04/26 09:10:06;;;;;;;6.00;2.45;;;9.20;99.90;;;;;;5040757;28;20029;-43
2023/04/26 09:12:32;;;;;;;3.70;1.67;;;9.30;99.90;;;;;;5040408;28;20079;-43
2023/04/26 09:14:57;;;;;;;8.35;2.25;;;9.40;99.90;;;;;;5040771;28;20449;-44
2023/04/26 09:17:30;;;;;;;4.75;1.95;;;9.40;99.90;;;;;;5041207;28;20078;-44
2023/04/26 09:19:57;;;;;;;4.47;2.28;;;9.50;99.90;;;;;;5039810;28;20017;-44
2023/04/26 09:22:33;;;;;;;5.72;1.90;;;9.50;99.90;;;;;;5041141;28;20063;-44
2023/04/26 09:24:59;;;;;;;2.83;1.85;;;9.60;99.90;;;;;;5041301;28;20025;-44
2023/04/26 09:27:33;;;;;;;3.70;1.75;;;9.70;99.90;;;;;;5040160;28;20048;-43
2023/04/26 09:30:19;;;;;;;2.47;1.35;;;9.80;99.90;;;;;;5040386;28;20021;-43
2023/04/26 09:33:03;;;;;;;3.58;1.80;;;9.80;99.90;;;;;;5040256;28;20366;-43
2023/04/26 09:35:30;;;;;;;4.05;1.80;;;9.80;99.90;;;;;;5040463;28;20067;-42
2023/04/26 09:38:04;;;;;;;4.55;1.70;;;9.70;99.90;;;;;;5040658;28;20503;-43
2023/04/26 09:40:33;;;;;;;3.90;1.80;;;9.70;99.90;;;;;;5039441;28;20059;-43
2023/04/26 09:43:06;;;;;;;5.13;1.70;;;9.60;99.90;;;;;;5040921;28;20068;-43
2023/04/26 09:45:41;;;;;;;3.47;1.73;;;9.60;99.90;;;;;;5040520;28;20039;-42
2023/04/26 09:48:27;;;;;;;1.98;1.45;;;9.70;99.90;;;;;;5038439;28;20187;-43
2023/04/26 09:50:54;;;;;;;2.08;1.70;;;9.70;99.90;;;;;;5039212;28;20048;-43
2023/04/26 09:53:26;;;;;;;3.05;1.70;;;9.70;99.90;;;;;;5040176;28;20091;-43
2023/04/26 09:55:53;;;;;;;2.70;1.83;;;9.70;99.90;;;;;;5039655;28;20603;-43
2023/04/26 09:58:19;;;;;;;4.47;2.10;;;9.70;99.90;;;;;;5040324;28;20255;-43
2023/04/26 10:00:48;;;;;;;5.47;2.30;;;9.80;99.90;;;;;;5039295;28;20032;-43
2023/04/26 10:03:16;;;;;;;3.22;1.90;;;9.80;99.90;;;;;;5040849;28;20809;-42
2023/04/26 10:05:45;;;;;;;2.97;2.00;;;9.90;99.90;;;;;;5043582;28;20044;-43
2023/04/26 10:08:11;;;;;;;5.05;1.98;;;10.00;99.90;;;;;;5043450;28;20036;-43
2023/04/26 10:10:37;;;;;;;4.35;2.03;;;10.10;99.90;;;;;;5043997;28;20601;-42
2023/04/26 10:13:05;;;;;;;4.28;2.40;;;10.10;99.90;;;;;;5044264;28;20025;-43
2023/04/26 10:15:31;;;;;;;6.95;2.60;;;10.20;99.90;;;;;;5043915;28;20021;-42
2023/04/26 10:17:56;;;;;;;5.00;2.17;;;10.30;99.90;;;;;;5042901;28;20106;-43
2023/04/26 10:20:25;;;;;;;3.83;2.72;;;10.40;99.90;;;;;;5044464;28;20054;-43
2023/04/26 10:22:53;;;;;;;3.70;2.38;;;10.50;99.90;;;;;;5043033;28;20056;-43
2023/04/26 10:25:20;;;;;;;4.65;2.50;;;10.60;99.90;;;;;;5043108;28;20347;-43
2023/04/26 10:27:46;;;;;;;3.40;2.00;;;10.60;99.90;;;;;;5043792;28;20051;-43
2023/04/26 10:30:13;;;;;;;1.98;1.75;;;10.60;99.90;;;;;;5044536;28;20554;-43
2023/04/26 10:32:51;;;;;;;4.25;2.10;;;10.60;99.90;;;;;;5044112;28;20032;-42
2023/04/26 10:35:18;;;;;;;3.25;2.22;;;10.50;99.90;;;;;;5044104;28;20129;-43
2023/04/26 10:37:58;;;;;;;5.60;1.90;;;10.50;99.90;;;;;;5042953;28;20452;-43
2023/04/26 10:40:32;;;;;;;2.45;1.80;;;10.40;99.90;;;;;;5043321;28;20017;-43
2023/04/26 10:43:10;;;;;;;4.53;1.88;;;10.40;99.90;;;;;;5042448;28;20029;-43
2023/04/26 10:45:36;;;;;;;4.07;2.13;;;10.40;99.90;;;;;;5043697;28;20033;-43
2023/04/26 10:48:27;;;;;;;6.97;1.98;;;10.30;99.90;;;;;;5043505;28;20045;-43
2023/04/26 10:51:01;;;;;;;3.10;1.77;;;10.20;99.90;;;;;;5042142;28;20055;-43
2023/04/26 10:53:31;;;;;;;4.85;2.13;;;10.20;99.90;;;;;;5043149;28;20174;-43
2023/04/26 10:55:57;;;;;;;4.85;2.08;;;10.10;99.90;;;;;;5043809;28;20048;-43
2023/04/26 10:58:34;;;;;;;2.13;1.80;;;10.00;99.90;;;;;;5042605;28;20112;-43
2023/04/26 11:01:16;;;;;;;4.32;2.00;;;10.00;99.90;;;;;;5043091;28;20043;-42
2023/04/26 11:03:44;;;;;;;3.33;1.90;;;10.00;99.90;;;;;;5043367;28;20052;-43
2023/04/26 11:06:14;;;;;;;3.40;2.00;;;10.00;99.90;;;;;;5042389;28;20380;-42
2023/04/26 11:08:40;;;;;;;5.57;2.00;;;10.00;99.90;;;;;;5042415;28;20552;-43
2023/04/26 11:11:12;;;;;;;5.65;1.52;;;10.00;99.90;;;;;;5042750;28;20021;-43
2023/04/26 11:13:40;;;;;;;2.63;1.70;;;10.10;99.90;;;;;;5042970;28;20039;-43
2023/04/26 11:16:10;;;;;;;4.15;1.83;;;10.20;99.90;;;;;;5042540;28;20036;-43
2023/04/26 11:18:41;;;;;;;3.90;1.95;;;10.30;99.90;;;;;;5041566;28;20768;-43
2023/04/26 11:21:07;;;;;;;3.33;1.75;;;10.30;99.90;;;;;;5043452;28;20025;-43
2023/04/26 11:23:34;;;;;;;3.85;1.73;;;10.40;99.90;;;;;;5042690;28;20028;-42
2023/04/26 11:26:05;;;;;;;3.85;1.73;;;10.40;99.90;;;;;;5042942;28;20028;-43
2023/04/26 11:28:31;;;;;;;3.40;1.77;;;10.40;99.90;;;;;;5042556;28;20079;-43
2023/04/26 11:30:57;;;;;;;3.22;1.52;;;10.50;99.90;;;;;;5042829;28;20025;-43
2023/04/26 11:33:23;;;;;;;3.15;1.73;;;10.50;99.90;;;;;;5042306;28;20025;-43
2023/04/26 11:35:50;;;;;;;4.63;1.75;;;10.60;99.90;;;;;;5042829;28;20377;-42
2023/04/26 11:38:16;;;;;;;2.50;1.50;;;10.70;99.90;;;;;;5042451;28;20841;-42
2023/04/26 11:40:42;;;;;;;2.90;1.60;;;10.70;99.90;;;;;;5040000;28;20438;-43
2023/04/26 11:43:08;;;;;;;5.40;1.50;;;10.80;99.60;;;;;;5042996;28;20033;-47
2023/04/26 11:45:36;;;;;;;6.07;1.80;;;10.90;99.50;;;;;;5042620;28;20031;-42
2023/04/26 11:48:07;;;;;;;2.80;1.77;;;10.90;99.20;;;;;;5041921;28;20048;-43
2023/04/26 11:50:35;;;;;;;3.13;1.67;;;11.00;98.80;;;;;;5041728;28;20554;-43
2023/04/26 11:53:03;;;;;;;2.40;1.60;;;11.10;98.80;;;;;;5042804;28;20028;-43
2023/04/26 11:55:32;;;;;;;4.00;2.00;;;11.20;98.80;;;;;;5042018;28;20044;-43
2023/04/26 11:57:58;;;;;;;3.63;1.98;;;11.30;98.70;;;;;;5040471;28;20473;-43
2023/04/26 12:00:24;;;;;;;5.03;2.30;;;11.30;97.40;;;;;;5041976;28;20029;-44
2023/04/26 12:02:54;;;;;;;2.40;1.73;;;11.20;97.40;;;;;;5040171;28;20049;-43
2023/04/26 12:05:20;;;;;;;4.50;1.90;;;11.30;97.70;;;;;;5051419;28;20033;-43
2023/04/26 12:07:50;;;;;;;3.78;1.98;;;11.40;97.70;;;;;;5040627;28;20033;-42
2023/04/26 12:10:21;;;;;;;2.22;1.90;;;11.50;97.30;;;;;;5040856;28;20023;-43
2023/04/26 12:12:48;;;;;;;3.83;2.40;;;11.70;97.20;;;;;;5041234;28;20029;-42
2023/04/26 12:15:14;;;;;;;3.50;2.22;;;11.70;97.10;;;;;;5039206;28;20025;-42
2023/04/26 12:17:49;;;;;;;5.03;2.33;;;11.80;96.50;;;;;;5039320;28;20920;-44
2023/04/26 12:20:15;;;;;;;4.15;2.30;;;11.80;96.80;;;;;;5039441;28;20021;-43
2023/04/26 12:22:41;;;;;;;4.80;2.47;;;11.80;96.80;;;;;;5038329;28;20024;-42
2023/04/26 12:25:08;;;;;;;4.63;2.33;;;11.80;96.70;;;;;;5039568;28;20036;-42
2023/04/26 12:27:38;;;;;;;4.50;2.13;;;11.70;96.50;;;;;;5038844;28;20614;-43
2023/04/26 12:30:04;;;;;;;5.13;2.17;;;11.70;96.80;;;;;;5041059;28;20033;-42
2023/04/26 12:32:30;;;;;;;3.78;2.30;;;11.80;96.90;;;;;;5040494;28;20029;-43
2023/04/26 12:34:55;;;;;;;4.10;2.20;;;11.70;96.80;;;;;;5041801;28;20028;-43
2023/04/26 12:37:21;;;;;;;4.40;2.03;;;11.70;96.70;;;;;;5040660;28;20028;-42
2023/04/26 12:39:46;;;;;;;3.35;1.70;;;11.70;96.70;;;;;;5040534;28;20029;-43
2023/04/26 12:42:12;;;;;;;2.70;1.85;;;11.70;96.90;;;;;;5040766;28;20094;-43
2023/04/26 12:44:37;;;;;;;5.55;2.10;;;11.70;96.70;;;;;;5041021;28;20037;-42
2023/04/26 12:47:03;;;;;;;3.53;1.98;;;11.80;96.70;;;;;;5042145;28;20049;-43
2023/04/26 12:49:32;;;;;;;3.00;1.80;;;11.80;96.00;;;;;;5041618;28;20106;-43
2023/04/26 12:51:57;;;;;;;2.80;1.98;;;11.90;96.30;;;;;;5041831;28;20570;-43